Aeroporto :
LOGIN :

Iscrizione | Disclaimer

   EN    FR    IT 

 










Sommario :    VFR   VFR Marginale   IFR   IFR Intensivo   IFR Molto Intensivo
Visibilità : 
Base nubi : 
>= 8 km
>= 3000ft
5 / 8 km
1000 / 3000 ft
1500m / 5 km
500 / 1000 ft
800 / 1500m
200 / 500 ft
< 800m
< 200 ft
Simboli :   Temporali  Nebbia  Neve Forte  Precipitazioni Forti  Vento > 20 kt
SIGMETs :   Varie  Temporali  Ghiacco  Turbolenza  Onda orograficha  Ceneri Vulcaniche






- Altitudine del aeroporto : 287 ft


LFRL - Lanveoc Poulmic

ULTIMO METAR :
  • 240430Z AUTO 03009KT 5000 BR FEW007 OVC150 03/02 Q1021

METARs OBSOLETI :
  • 240400Z AUTO 04009KT 4600 BR FEW006 BKN150 03/02 Q1021
  • 240330Z AUTO 05007KT 4600 BR SCT007 BKN160 03/02 Q1021
  • 240300Z AUTO 06007KT 4200 BR BKN005 BKN180 BKN210 03/02 Q1021
  • 240230Z AUTO 06007KT 4200 BR BKN005 BKN210 BKN230 03/02 Q1021
  • 240200Z AUTO 07009KT 4700 BR BKN005 03/02 Q1022

TAF TAF LFRL
Valido dal 23 a 12 ore il 24 a 12 ore UTC


231100Z 2312/2412 05010KT CAVOK
TEMPO 2400/2406 BKN004
BECMG 2406/2408 BKN010



MetMap, La meteo Aeronautica in un colpo d'occhio ! - Copyright ORBIFLY Dicembre 2007 - Disclaimer

ORBIFLY MET'MAP TEAM :

Programmazione e sviluppo : Alexandra Zaïnal
Concezione : Baudouin d'Aumeries
Aiuto per la programmazione : Marc-Olivier Méhu
Supporto tecnico e logistico : Manuel Goepfert
Aiuto per la traduzione : Arnaldo La Scala

Contatto : metmap@orbifly.com




FONTI E CREDITI :

   NOAA